Latest Coastal Weather Observations for Yamba

IDN60701

Issued at 11:45 am EST Friday 1 August 2014 (issued every 10 minutes, with the page automatically refreshed every 10 minutes)

About coastal observations | Map of coastal stations | Coastal observations for NSW | Marine services | Other Formats
Station Details ID: 058012 Name: YAMBA PILOT STATION Lat: -29.43 Lon: 153.36 Height: 27.4 m
Data from the previous 72 hours. | See also: Recent months at Yamba
Date/Time
EST
Temp

°C
Wind Pressure Rain
since 9am
mm
Weather Cloud Vis
km
Sea
Height
m
Swell
Dir
 
Speed
knots
Gust
knots
hPa Trend Height
m
Period
s
Dir
01/11:30am 24.4 NW 10 14 1011.3 - 0.0 - - - - - - -
01/11:00am 23.5 NNW 9 13 1011.8 - 0.0 - - - - - - -
01/10:30am 22.7 NNW 10 16 1012.1 - 0.0 - - - - - - -
01/10:00am 22.0 NNW 9 14 1012.5 - 0.0 - - - - - - -
01/09:30am 20.8 NNW 9 13 1013.1 - 0.0 - - - - - - -
01/09:00am 19.1 NNW 9 13 1013.0 F 0.0 Smoke Mostly clear 20 2 1.0 7 NE
01/08:30am 18.1 NNW 9 14 1013.1 - 0.0 - - - - - - -
01/08:00am 17.0 NNW 8 14 1013.3 - 0.0 - - - - - - -
01/07:30am 16.2 NNW 8 13 1013.4 - 0.0 - - - - - - -
01/07:00am 15.2 NNW 8 12 1013.5 - 0.0 - - - - - - -
01/06:30am 14.8 NNW 8 11 1013.3 - 0.0 - - - - - - -
01/06:00am 15.3 NNW 7 11 1013.1 - 0.0 - - - - - - -
01/05:30am 15.6 NNW 9 13 1013.1 - 0.0 - - - - - - -
01/05:00am 15.7 NNW 9 14 1013.1 - 0.0 - - - - - - -
01/04:30am 15.9 NW 8 12 1013.2 - 0.0 - - - - - - -
01/04:00am 15.7 NNW 7 11 1012.9 - 0.0 - - - - - - -
01/03:30am 15.7 NW 7 11 1013.1 - 0.0 - - - - - - -
01/03:00am 15.5 NW 7 10 1013.3 - 0.0 - - - - - - -
01/02:30am 15.6 NNW 7 11 1013.5 - 0.0 - - - - - - -
01/02:00am 15.9 NNW 8 12 1013.7 - 0.0 - - - - - - -
01/01:30am 15.6 NNW 7 11 1013.9 - 0.0 - - - - - - -
01/01:00am 15.8 NNW 9 12 1014.0 - 0.0 - - - - - - -
01/12:30am 15.9 N 8 12 1014.4 - 0.0 - - - - - - -
01/12:00am 16.6 NNW 9 14 1014.7 - 0.0 - - - - - - -
 
Date/Time
EST
Temp

°C
Wind Pressure Rain
since 9am
mm
Weather Cloud Vis
km
Sea
Height
m
Swell
Dir
 
Speed
knots
Gust
knots
hPa Trend Height
m
Period
s
Dir
31/11:30pm 16.3 NNW 7 9 1015.0 - 0.0 - - - - - - -
31/11:00pm 16.7 NNW 8 11 1015.2 - 0.0 - - - - - - -
31/10:30pm 16.5 NNW 7 11 1015.4 - 0.0 - - - - - - -
31/10:00pm 17.1 NNW 8 14 1015.4 - 0.0 - - - - - - -
31/09:30pm 16.1 NNW 8 13 1015.4 - 0.0 - - - - - - -
31/09:00pm 15.8 NNW 7 10 1015.2 - 0.0 - - - - - - -
31/08:30pm 15.6 NW 7 9 1015.4 - 0.0 - - - - - - -
31/08:00pm 16.6 NNW 7 12 1014.9 - 0.0 - - - - - - -
31/07:30pm 17.0 N 7 11 1014.6 - 0.0 - - - - - - -
31/07:00pm 17.7 N 7 10 1014.1 - 0.0 - - - - - - -
31/06:30pm 18.4 N 7 11 1014.0 - 0.0 - - - - - - -
31/06:00pm 18.7 N 7 13 1013.8 - 0.0 - - - - - - -
31/05:30pm 18.7 N 6 10 1013.7 - 0.0 - - - - - - -
31/05:00pm 19.2 N 6 10 1013.8 - 0.0 - - - - - - -
31/04:30pm 19.8 N 5 9 1013.7 - 0.0 - - - - - - -
31/04:00pm 20.9 N 5 9 1013.7 - 0.0 - - - - - - -
31/03:30pm 21.0 N 6 11 1014.0 - 0.0 - - - - - - -
31/03:00pm 20.7 NNE 5 9 1014.3 F 0.0 Smoke Clear 10 1 0.5 8 SE
31/02:30pm 21.0 NE 5 9 1014.7 - 0.0 - - - - - - -
31/02:00pm 21.5 NE 5 9 1015.0 - 0.0 - - - - - - -
31/01:30pm 21.9 NE 4 7 1015.5 - 0.0 - - - - - - -
31/01:00pm 21.1 NNE 5 7 1016.2 - 0.0 - - - - - - -
31/12:30pm 22.2 N 5 9 1016.9 - 0.0 - - - - - - -
31/12:00pm 22.0 N 3 6 1017.5 - 0.0 - - - - - - -
31/11:30am 20.4 NNE 4 6 1018.5 - 0.0 - - - - - - -
31/11:00am 18.8 NE 4 6 1019.2 - 0.0 - - - - - - -
31/10:30am 18.8 NNW 4 5 1019.9 - 0.0 - - - - - - -
31/10:00am 17.6 NNW 4 6 1020.3 - 0.0 - - - - - - -
31/09:30am 16.5 WNW 5 8 1020.2 - 0.0 - - - - - - -
31/09:00am 14.2 W 5 6 1020.2 R 0.0 Smoke Clear 5 <0.5 0.5 8 SE
31/08:30am 12.6 W 5 7 1020.0 - 0.0 - - - - - - -
31/08:00am 10.8 WSW 6 8 1019.9 - 0.0 - - - - - - -
31/07:30am 9.4 WSW 7 9 1019.8 - 0.0 - - - - - - -
31/07:00am 8.4 WSW 8 8 1019.7 - 0.0 - - - - - - -
31/06:30am 8.6 WSW 8 10 1019.3 - 0.0 - - - - - - -
31/06:00am 8.8 WSW 7 8 1019.2 - 0.0 - - - - - - -
31/05:30am 9.0 WSW 5 8 1019.1 - 0.0 - - - - - - -
31/05:00am 9.3 WSW 6 8 1018.7 - 0.0 - - - - - - -
31/04:30am 10.0 WSW 6 8 1018.7 - 0.0 - - - - - - -
31/04:00am 10.0 WSW 8 11 1018.4 - 0.0 - - - - - - -
31/03:30am 9.7 W 7 9 1018.6 - 0.0 - - - - - - -
31/03:00am 9.5 W 6 8 1018.7 - 0.0 - - - - - - -
31/02:30am 9.9 WSW 5 8 1019.0 - 0.0 - - - - - - -
31/02:00am 10.5 WSW 7 9 1019.0 - 0.0 - - - - - - -
31/01:30am 11.1 WSW 7 8 1019.1 - 0.0 - - - - - - -
31/01:00am 11.9 NNW 4 5 1019.3 - 0.0 - - - - - - -
31/12:30am 12.4 WNW 5 5 1019.5 - 0.0 - - - - - - -
31/12:00am 12.1 NW 5 6 1019.8 - 0.0 - - - - - - -
 
Date/Time
EST
Temp

°C
Wind Pressure Rain
since 9am
mm
Weather Cloud Vis
km
Sea
Height
m
Swell
Dir
 
Speed
knots
Gust
knots
hPa Trend Height
m
Period
s
Dir
30/11:30pm 12.9 W 5 6 1020.1 - 0.0 - - - - - - -
30/11:00pm 13.6 WNW 5 7 1020.1 - 0.0 - - - - - - -
30/10:30pm 13.8 NW 5 8 1020.0 - 0.0 - - - - - - -
30/10:00pm 14.3 NW 5 6 1020.0 - 0.0 - - - - - - -
30/09:30pm 14.9 NNW 6 9 1019.9 - 0.0 - - - - - - -
30/09:00pm 14.9 N 6 8 1019.6 - 0.0 - - - - - - -
30/08:30pm 15.2 NNW 6 8 1019.6 - 0.0 - - - - - - -
30/08:00pm 15.1 N 5 8 1019.4 - 0.0 - - - - - - -
30/07:30pm 15.6 NNW 5 7 1019.5 - 0.0 - - - - - - -
30/07:00pm 15.5 N 5 8 1019.3 - 0.0 - - - - - - -
30/06:30pm 16.6 N 4 7 1019.2 - 0.0 - - - - - - -
30/06:00pm 16.1 N 4 7 1019.1 - 0.0 - - - - - - -
30/05:30pm 16.8 NNW 4 7 1019.0 - 0.0 - - - - - - -
30/05:00pm 17.7 N 5 9 1018.8 - 0.0 - - - - - - -
30/04:30pm 18.4 NE 3 5 1018.8 - 0.0 - - - - - - -
30/04:00pm 20.1 NNE 3 5 1018.7 - 0.0 - - - - - - -
30/03:30pm 19.7 ENE 4 5 1018.5 - 0.0 - - - - - - -
30/03:00pm 20.2 ENE 4 6 1018.4 F 0.0 Smoke Clear 30 1 0.5 8 SE
30/02:30pm 20.4 ENE 5 7 1018.7 - 0.0 - - - - - - -
30/02:00pm 20.6 ENE 5 6 1018.9 - 0.0 - - - - - - -
30/01:30pm 20.5 E 5 6 1019.2 - 0.0 - - - - - - -
30/01:00pm 20.5 ENE 5 7 1019.5 - 0.0 - - - - - - -
30/12:30pm 21.2 E 3 6 1019.8 - 0.0 - - - - - - -
30/12:00pm 20.9 W 4 6 1020.4 - 0.0 - - - - - - -
30/11:30am 20.2 WNW 4 7 1020.8 - 0.0 - - - - - - -
30/11:00am 19.4 WNW 4 7 1021.4 - 0.0 - - - - - - -
30/10:30am 17.8 WNW 6 9 1021.9 - 0.0 - - - - - - -
30/10:00am 17.1 WNW 5 7 1022.2 - 0.0 - - - - - - -
30/09:30am 15.7 NW 5 8 1022.3 - 0.0 - - - - - - -
30/09:00am 14.5 NW 5 8 1022.5 R 0.0 Smoke Clear 35 1 0.5 8 SE
30/08:30am 12.9 WNW 6 9 1022.2 - 0.0 - - - - - - -
30/08:00am 11.0 W 7 9 1022.0 - 0.0 - - - - - - -
30/07:30am 9.5 WSW 7 9 1021.8 - 0.0 - - - - - - -
30/07:00am 8.6 WSW 8 11 1021.6 - 0.0 - - - - - - -
30/06:30am 8.6 WSW 8 10 1021.3 - 0.0 - - - - - - -
30/06:00am 8.6 W 8 11 1021.0 - 0.0 - - - - - - -
30/05:30am 8.6 W 8 10 1020.6 - 0.0 - - - - - - -
30/05:00am 8.9 W 8 10 1020.5 - 0.0 - - - - - - -
30/04:30am 9.1 W 8 10 1020.1 - 0.0 - - - - - - -
30/04:00am 9.1 WSW 6 8 1020.3 - 0.0 - - - - - - -
30/03:30am 9.4 WSW 6 8 1020.2 - 0.0 - - - - - - -
30/03:00am 9.9 WSW 5 7 1020.2 - 0.0 - - - - - - -
30/02:30am 10.7 WSW 7 10 1020.1 - 0.0 - - - - - - -
30/02:00am 10.8 WSW 6 9 1020.3 - 0.0 - - - - - - -
30/01:30am 11.3 WSW 8 10 1020.2 - 0.0 - - - - - - -
30/01:00am 11.5 W 7 10 1020.5 - 0.0 - - - - - - -
30/12:30am 11.5 W 7 9 1020.6 - 0.0 - - - - - - -
30/12:00am 11.8 W 8 10 1020.7 - 0.0 - - - - - - -
 
Date/Time
EST
Temp

°C
Wind Pressure Rain
since 9am
mm
Weather Cloud Vis
km
Sea
Height
m
Swell
Dir
 
Speed
knots
Gust
knots
hPa Trend Height
m
Period
s
Dir
29/11:30pm 12.2 W 7 10 1020.6 - 0.0 - - - - - - -
29/11:00pm 12.7 NW 4 7 1020.9 - 0.0 - - - - - - -
29/10:30pm 13.0 NW 5 8 1021.0 - 0.0 - - - - - - -
29/10:00pm 14.0 NW 6 9 1020.8 - 0.0 - - - - - - -
29/09:30pm 14.3 NNW 6 9 1020.5 - 0.0 - - - - - - -
29/09:00pm 14.4 NNW 6 8 1020.3 - 0.0 - - - - - - -
29/08:30pm 14.8 NNW 6 9 1020.2 - 0.0 - - - - - - -
29/08:00pm 16.7 N 4 7 1020.0 - 0.0 - - - - - - -
29/07:30pm 16.6 N 4 8 1019.8 - 0.0 - - - - - - -
29/07:00pm 16.6 N 4 7 1019.4 - 0.0 - - - - - - -
29/06:30pm 16.6 N 4 8 1019.3 - 0.0 - - - - - - -
29/06:00pm 16.6 NNW 4 7 1018.9 - 0.0 - - - - - - -
29/05:30pm 16.7 N 5 8 1018.6 - 0.0 - - - - - - -
29/05:00pm 16.9 N 5 9 1018.5 - 0.0 - - - - - - -
29/04:30pm 17.7 NNE 5 9 1018.6 - 0.0 - - - - - - -
29/04:00pm 18.4 NE 5 7 1018.7 - 0.0 - - - - - - -
29/03:30pm 19.1 NE 5 7 1019.0 - 0.0 - - - - - - -
29/03:00pm 19.4 E 5 8 1018.9 F 0.0 Smoke Clear 40 1 0.5 8 SE
29/02:30pm 19.4 E 5 6 1019.0 - 0.0 - - - - - - -
29/02:00pm 22.1 N 4 7 1019.2 - 0.0 - - - - - - -
29/01:30pm 21.8 NW 4 7 1019.6 - 0.0 - - - - - - -
29/01:00pm 21.5 NNW 4 8 1020.0 - 0.0 - - - - - - -
29/12:30pm 20.0 W 5 8 1020.5 - 0.0 - - - - - - -
29/12:00pm 19.8 W 6 9 1020.9 - 0.0 - - - - - - -

Other Formats:

Comma delimited format used in spreadsheet applications
http://www.bom.gov.au/fwo/IDN60701/IDN60701.94589.axf

JavaScript Object Notation format (JSON) in row-major order
http://www.bom.gov.au/fwo/IDN60701/IDN60701.94589.json